Time;durP1;ratioP1;P1;durP2;ratioP2;P2;SDS_P1;SDS_P2;PMS_P1;PMS_P2;Temp;Humidity;BMP_temperature;BMP_pressure;BME280_temperature;BME280_humidity;BME280_pressure;Samples;Min_cycle;Max_cycle;Signal;HPM_P1;HPM_P2
2021/04/10 00:01:08;;;;;;;12.48;9.18;;;;;;;7.97;88.54;99790.72;5016900;28;20053;-75
2021/04/10 00:03:35;;;;;;;11.73;8.77;;;;;;;7.95;88.49;99801.44;5016693;28;20058;-74
2021/04/10 00:06:01;;;;;;;13.85;8.90;;;;;;;7.97;88.09;99804.88;5016079;28;20058;-74
2021/04/10 00:08:27;;;;;;;15.55;10.10;;;;;;;7.89;89.71;99817.72;5016149;28;20053;-74
2021/04/10 00:10:53;;;;;;;13.50;9.00;;;;;;;7.90;89.25;99829.22;5014957;28;20095;-73
2021/04/10 00:13:20;;;;;;;14.82;9.43;;;;;;;7.82;87.97;99817.19;5015651;28;20107;-73
2021/04/10 00:15:46;;;;;;;12.35;9.52;;;;;;;7.78;88.38;99809.50;5014707;28;20056;-74
2021/04/10 00:18:13;;;;;;;13.13;9.75;;;;;;;7.85;89.56;99816.19;5015943;28;20053;-74
2021/04/10 00:20:43;;;;;;;13.30;9.80;;;;;;;7.20;90.15;99699.25;5015669;28;20119;-74
2021/04/10 00:23:10;;;;;;;;;;;;;;;7.85;89.94;99797.59;5016262;28;20088;-74
2021/04/10 00:25:36;;;;;;;14.43;9.48;;;;;;;7.86;90.35;99786.00;5015533;28;20208;-74
2021/04/10 00:28:02;;;;;;;12.40;9.75;;;;;;;7.85;89.73;99779.81;5015864;28;20116;-74
2021/04/10 00:30:29;;;;;;;16.15;9.95;;;;;;;7.90;89.86;99782.22;5014357;28;20050;-74
2021/04/10 00:32:55;;;;;;;12.27;9.32;;;;;;;7.88;90.10;99797.41;5003623;28;20053;-73
2021/04/10 00:35:22;;;;;;;16.20;10.35;;;;;;;7.72;90.72;99787.63;4996039;28;20495;-74
2021/04/10 00:37:56;;;;;;;13.73;10.45;;;;;;;7.73;89.68;99791.13;5011600;28;20359;-73
2021/04/10 00:40:23;;;;;;;13.53;9.77;;;;;;;7.71;89.56;99796.53;5014669;28;20058;-73
2021/04/10 00:42:50;;;;;;;18.98;11.18;;;;;;;7.73;90.55;99792.00;5015417;28;20058;-74
2021/04/10 00:45:17;;;;;;;15.05;10.70;;;;;;;7.57;90.79;99770.72;5014343;28;20054;-74
2021/04/10 00:47:46;;;;;;;16.48;10.65;;;;;;;7.68;90.66;99785.22;5014671;28;20089;-74
2021/04/10 00:50:12;;;;;;;15.05;10.40;;;;;;;7.67;90.94;99786.19;5015753;28;20053;-74
2021/04/10 00:52:40;;;;;;;13.52;10.23;;;;;;;7.49;91.00;99749.06;5014227;28;20049;-74
2021/04/10 00:55:09;;;;;;;13.93;10.73;;;;;;;7.71;90.86;99788.56;5015388;28;20073;-74
2021/04/10 00:57:35;;;;;;;14.57;10.75;;;;;;;7.68;91.01;99780.75;5015013;28;20066;-74
2021/04/10 01:00:05;;;;;;;14.38;9.60;;;;;;;7.68;91.33;99785.22;5015556;28;20053;-74
2021/04/10 01:02:31;;;;;;;12.98;9.60;;;;;;;7.72;91.35;99777.00;5015212;28;20045;-74
2021/04/10 01:04:57;;;;;;;15.85;11.65;;;;;;;7.66;90.91;99768.50;5013862;28;20049;-75
2021/04/10 01:07:23;;;;;;;16.70;10.18;;;;;;;7.71;91.27;99775.28;5015282;28;20054;-74
2021/04/10 01:09:52;;;;;;;12.20;9.88;;;;;;;7.61;91.34;99779.38;5014985;28;20066;-74
2021/04/10 01:12:54;;;;;;;13.82;10.02;;;;;;;7.61;91.36;99774.94;5015188;28;20096;-74
2021/04/10 01:15:57;;;;;;;15.68;9.85;;;;;;;7.62;90.62;99783.75;5030414;28;20096;-74
2021/04/10 01:18:29;;;;;;;15.77;11.65;;;;;;;7.65;90.90;99778.28;5014922;28;20147;-74
2021/04/10 01:21:21;;;;;;;15.00;10.95;;;;;;;7.61;90.77;99774.06;5014930;28;20386;-74
2021/04/10 01:24:25;;;;;;;14.07;10.02;;;;;;;7.63;90.98;99758.91;5015318;28;20057;-74
2021/04/10 01:27:11;;;;;;;15.95;10.80;;;;;;;7.55;91.36;99769.97;5017585;28;20058;-74
2021/04/10 01:29:51;;;;;;;15.43;10.88;;;;;;;7.52;90.75;99771.94;5018061;28;20057;-74
2021/04/10 01:32:19;;;;;;;14.02;11.10;;;;;;;7.44;91.23;99769.69;5018979;28;20046;-74
2021/04/10 01:34:51;;;;;;;15.70;10.65;;;;;;;7.50;89.87;99772.00;5018743;28;20398;-74
2021/04/10 01:37:25;;;;;;;18.90;10.52;;;;;;;7.53;90.52;99779.81;5018762;28;20065;-74
2021/04/10 01:39:52;;;;;;;13.52;9.90;;;;;;;7.50;89.50;99777.31;5019071;28;20049;-74
2021/04/10 01:42:21;;;;;;;16.70;9.93;;;;;;;7.49;89.63;99770.28;5018463;28;20049;-74
2021/04/10 01:44:50;;;;;;;14.13;9.65;;;;;;;7.45;89.66;99777.56;5018649;28;20424;-74
2021/04/10 01:47:17;;;;;;;12.98;10.43;;;;;;;7.46;89.90;99779.28;5018541;28;20053;-74
2021/04/10 01:49:45;;;;;;;13.95;9.73;;;;;;;7.48;89.91;99777.41;5018411;28;20085;-75
2021/04/10 01:52:12;;;;;;;14.70;10.80;;;;;;;7.39;89.96;99777.91;5017081;28;20045;-74
2021/04/10 01:54:39;;;;;;;13.25;10.30;;;;;;;7.42;89.78;99774.22;5033645;28;20049;-74
2021/04/10 01:57:07;;;;;;;11.15;9.57;;;;;;;7.40;89.84;99763.69;5016942;28;20108;-74
2021/04/10 01:59:40;;;;;;;13.57;10.50;;;;;;;7.33;90.45;99773.78;5018185;28;20054;-74
2021/04/10 02:02:08;;;;;;;12.18;9.25;;;;;;;7.38;90.19;99767.34;5017806;28;20116;-74
2021/04/10 02:04:39;;;;;;;17.05;9.73;;;;;;;7.32;90.15;99768.56;5018139;28;20054;-74
2021/04/10 02:07:06;;;;;;;12.10;9.63;;;;;;;7.25;90.43;99765.34;5017269;28;20053;-74
2021/04/10 02:09:33;;;;;;;10.45;8.98;;;;;;;7.31;89.90;99782.78;5017016;28;20050;-74
2021/04/10 02:12:01;;;;;;;14.60;8.85;;;;;;;7.25;89.55;99785.75;5017958;28;20046;-74
2021/04/10 02:14:29;;;;;;;14.30;9.43;;;;;;;7.20;90.23;99786.84;5018513;28;20058;-74
2021/04/10 02:16:56;;;;;;;11.57;9.20;;;;;;;7.23;90.65;99782.34;5018266;28;20125;-74
2021/04/10 02:19:23;;;;;;;16.42;8.95;;;;;;;7.19;90.58;99782.47;5017961;28;20184;-74
2021/04/10 02:21:49;;;;;;;11.30;8.23;;;;;;;7.18;90.44;99772.81;5018075;28;20054;-74
2021/04/10 02:24:15;;;;;;;11.13;8.07;;;;;;;7.12;90.17;99770.47;5017898;28;20053;-74
2021/04/10 02:26:41;;;;;;;16.48;9.23;;;;;;;7.20;90.91;99783.34;5016738;28;20435;-74
2021/04/10 02:29:09;;;;;;;11.63;7.68;;;;;;;7.16;90.23;99785.31;5016924;28;20101;-74
2021/04/10 02:32:22;;;;;;;11.68;8.00;;;;;;;7.19;90.32;99786.91;5017616;28;20427;-74
2021/04/10 02:34:55;;;;;;;9.43;7.78;;;;;;;7.16;90.34;99793.28;5016425;28;20132;-75
2021/04/10 02:37:22;;;;;;;10.95;7.97;;;;;;;7.14;90.96;99797.78;5016715;28;20054;-73
2021/04/10 02:39:49;;;;;;;11.15;8.43;;;;;;;7.07;90.98;99789.31;5033085;28;20116;-72
2021/04/10 02:42:18;;;;;;;9.68;7.70;;;;;;;7.04;90.46;99799.22;5017605;28;20347;-73
2021/04/10 02:44:50;;;;;;;8.88;7.35;;;;;;;6.89;90.74;99769.91;5017488;28;20077;-73
2021/04/10 02:47:20;;;;;;;11.57;7.82;;;;;;;7.03;90.42;99800.16;5017196;28;20049;-72
2021/04/10 02:49:58;;;;;;;9.52;7.63;;;;;;;7.01;91.24;99797.59;5016183;28;20053;-72
2021/04/10 02:52:32;;;;;;;10.07;7.35;;;;;;;7.01;91.28;99805.53;5017463;28;20052;-72
2021/04/10 02:55:01;;;;;;;13.88;7.97;;;;;;;7.03;90.94;99797.50;5017296;28;20061;-72
2021/04/10 02:57:29;;;;;;;10.57;8.25;;;;;;;6.98;90.43;99807.50;5016910;28;20415;-72
2021/04/10 02:59:59;;;;;;;13.40;8.43;;;;;;;7.00;90.75;99813.56;5017596;28;20049;-72
2021/04/10 03:02:26;;;;;;;10.10;7.25;;;;;;;7.00;89.98;99809.13;5017076;28;20107;-73
2021/04/10 03:04:53;;;;;;;9.75;7.22;;;;;;;6.88;90.17;99800.03;5017305;28;20112;-72
2021/04/10 03:07:20;;;;;;;11.43;6.75;;;;;;;6.89;90.64;99791.13;5017150;28;20061;-72
2021/04/10 03:09:47;;;;;;;10.73;7.80;;;;;;;6.93;90.64;99808.59;5016948;28;20404;-72
2021/04/10 03:12:15;;;;;;;8.10;6.82;;;;;;;6.94;90.89;99814.75;5016865;28;20105;-72
2021/04/10 03:14:42;;;;;;;10.95;8.05;;;;;;;6.87;90.74;99808.91;5017017;28;20053;-73
2021/04/10 03:17:12;;;;;;;10.18;8.32;;;;;;;6.88;91.65;99807.13;5016587;28;20050;-72
2021/04/10 03:19:39;;;;;;;6.93;5.93;;;;;;;6.81;91.74;99816.31;5015893;28;20050;-73
2021/04/10 03:22:06;;;;;;;10.30;7.95;;;;;;;6.77;91.55;99811.16;5016361;28;20299;-74
2021/04/10 03:24:32;;;;;;;10.98;7.63;;;;;;;6.75;91.39;99807.72;5016298;28;20106;-74
2021/04/10 03:26:59;;;;;;;9.60;7.68;;;;;;;6.83;91.46;99807.34;5015498;28;20058;-74
2021/04/10 03:29:26;;;;;;;11.13;7.63;;;;;;;6.82;91.87;99799.47;5016323;28;20108;-74
2021/04/10 03:31:54;;;;;;;10.95;7.60;;;;;;;6.82;91.97;99805.63;5016613;28;20046;-74
2021/04/10 03:34:20;;;;;;;10.52;8.25;;;;;;;6.81;92.10;99798.59;5016353;28;20144;-74
2021/04/10 03:36:47;;;;;;;9.80;7.53;;;;;;;6.83;92.21;99811.78;5016127;28;20053;-74
2021/04/10 03:39:13;;;;;;;10.65;8.18;;;;;;;6.83;92.24;99815.31;5015194;28;20054;-74
2021/04/10 03:41:41;;;;;;;13.35;7.63;;;;;;;6.88;91.39;99812.41;5016445;28;20049;-74
2021/04/10 03:44:07;;;;;;;9.68;7.35;;;;;;;6.89;91.59;99807.03;5016041;28;20053;-74
2021/04/10 03:46:36;;;;;;;13.45;8.75;;;;;;;6.95;90.98;99805.84;5016274;28;20505;-74
2021/04/10 03:49:04;;;;;;;9.68;7.85;;;;;;;6.96;91.17;99812.03;5016070;28;20431;-74
2021/04/10 03:51:31;;;;;;;11.77;7.47;;;;;;;6.87;91.43;99810.72;5016374;28;20095;-72
2021/04/10 03:53:58;;;;;;;11.63;7.90;;;;;;;6.88;91.75;99810.63;5016512;28;20056;-72
2021/04/10 03:56:24;;;;;;;9.68;8.15;;;;;;;6.88;92.13;99823.91;5014891;28;20121;-74
2021/04/10 03:58:51;;;;;;;9.45;8.40;;;;;;;6.84;91.49;99803.75;5014826;28;20082;-74
2021/04/10 04:01:17;;;;;;;9.35;8.30;;;;;;;6.91;91.28;99820.19;5016228;28;20053;-74
2021/04/10 04:03:44;;;;;;;10.70;8.43;;;;;;;6.96;90.81;99817.34;5014824;28;20049;-74
2021/04/10 04:06:10;;;;;;;12.00;8.90;;;;;;;6.93;91.07;99823.66;5014916;28;20054;-74
2021/04/10 04:08:36;;;;;;;9.10;8.20;;;;;;;6.82;91.13;99813.59;5016101;28;20085;-73
2021/04/10 04:11:02;;;;;;;10.63;8.15;;;;;;;6.92;91.63;99814.84;5016013;28;20049;-73
2021/04/10 04:13:28;;;;;;;10.55;8.70;;;;;;;6.95;91.37;99815.59;5015898;28;20050;-73
2021/04/10 04:15:55;;;;;;;10.68;8.05;;;;;;;6.88;91.22;99813.28;5016044;28;20368;-73
2021/04/10 04:18:21;;;;;;;13.32;8.23;;;;;;;6.96;91.35;99825.31;4998687;28;20054;-73
2021/04/10 04:20:47;;;;;;;14.20;8.32;;;;;;;6.95;90.30;99810.28;5015806;28;20046;-73
2021/04/10 04:23:13;;;;;;;8.68;7.32;;;;;;;6.97;91.18;99827.00;5015775;28;20119;-73
2021/04/10 04:25:39;;;;;;;9.00;7.80;;;;;;;6.95;90.81;99826.22;5015815;28;20108;-73
2021/04/10 04:28:05;;;;;;;10.52;8.60;;;;;;;6.91;91.62;99831.69;5015659;28;20050;-73
2021/04/10 04:30:32;;;;;;;12.57;8.65;;;;;;;6.93;90.68;99815.69;5015842;28;20092;-75
2021/04/10 04:32:58;;;;;;;9.68;8.18;;;;;;;6.87;91.50;99823.97;5014668;28;20144;-72
2021/04/10 04:35:24;;;;;;;11.57;8.52;;;;;;;6.86;92.02;99828.41;5015311;28;20427;-72
2021/04/10 04:37:50;;;;;;;14.10;8.50;;;;;;;6.84;91.58;99830.28;5015839;28;20050;-72
2021/04/10 04:40:16;;;;;;;12.25;8.88;;;;;;;6.83;91.80;99836.53;5015153;28;20085;-72
2021/04/10 04:42:43;;;;;;;11.07;8.75;;;;;;;6.81;90.91;99834.88;5014246;28;20046;-73
2021/04/10 04:45:09;;;;;;;10.18;8.82;;;;;;;6.80;91.58;99844.63;5015537;28;20046;-73
2021/04/10 04:47:35;;;;;;;11.05;9.35;;;;;;;6.83;91.68;99840.97;4997927;28;20061;-73
2021/04/10 04:50:02;;;;;;;15.40;9.68;;;;;;;6.81;91.77;99835.72;5015106;28;20436;-73
2021/04/10 04:52:30;;;;;;;11.80;8.95;;;;;;;6.88;91.46;99846.91;5014359;28;20069;-73
2021/04/10 04:54:56;;;;;;;12.52;9.32;;;;;;;6.78;91.52;99842.06;5013927;28;20519;-73
2021/04/10 04:57:23;;;;;;;10.10;8.85;;;;;;;6.79;93.16;99854.41;5015183;28;20343;-73
2021/04/10 04:59:49;;;;;;;10.50;9.32;;;;;;;6.82;92.60;99860.47;5014250;28;20057;-73
2021/04/10 05:02:16;;;;;;;10.93;9.40;;;;;;;6.81;92.22;99864.06;5014073;28;20092;-73
2021/04/10 05:04:42;;;;;;;14.73;9.82;;;;;;;6.88;91.97;99861.03;5014979;28;20128;-73
2021/04/10 05:07:08;;;;;;;10.35;9.10;;;;;;;6.88;92.24;99869.00;5015464;28;20050;-72
2021/04/10 05:09:34;;;;;;;14.27;10.02;;;;;;;6.83;92.73;99865.72;5013787;28;20066;-73
2021/04/10 05:12:01;;;;;;;9.77;8.43;;;;;;;6.91;92.47;99868.84;5015149;28;20050;-72
2021/04/10 05:14:27;;;;;;;13.07;9.10;;;;;;;7.02;92.23;99860.31;5015188;28;20053;-75
2021/04/10 05:16:53;;;;;;;12.45;8.90;;;;;;;7.01;91.65;99861.25;5030202;28;20080;-74
2021/04/10 05:19:19;;;;;;;11.88;9.32;;;;;;;6.86;92.00;99860.25;5014851;28;20052;-72
2021/04/10 05:21:45;;;;;;;11.43;8.77;;;;;;;7.00;92.55;99867.50;5013984;28;20053;-73
2021/04/10 05:24:11;;;;;;;13.35;10.45;;;;;;;6.98;92.10;99871.19;5014734;28;20053;-72
2021/04/10 05:26:38;;;;;;;11.88;9.23;;;;;;;7.05;92.11;99872.59;5015026;28;20049;-72
2021/04/10 05:29:04;;;;;;;12.05;9.18;;;;;;;7.15;91.94;99859.69;5014772;28;20404;-75
2021/04/10 05:31:30;;;;;;;12.57;8.98;;;;;;;7.06;92.00;99855.72;5013525;28;20053;-74
2021/04/10 05:33:57;;;;;;;10.88;9.57;;;;;;;7.13;91.76;99874.84;5014902;28;20074;-74
2021/04/10 05:36:23;;;;;;;17.25;9.45;;;;;;;7.08;91.97;99875.06;5014864;28;20046;-74
2021/04/10 05:38:49;;;;;;;12.65;9.18;;;;;;;7.03;92.00;99875.31;5013872;28;20050;-75
2021/04/10 05:41:15;;;;;;;13.93;9.32;;;;;;;7.13;92.39;99874.84;5013481;28;20054;-73
2021/04/10 05:43:41;;;;;;;14.30;9.50;;;;;;;7.11;92.12;99871.41;5014972;28;20049;-73
2021/04/10 05:46:07;;;;;;;11.77;9.98;;;;;;;7.15;92.78;99881.78;5014669;28;20061;-75
2021/04/10 05:48:34;;;;;;;12.93;9.60;;;;;;;7.17;92.32;99887.88;5014864;28;20070;-75
2021/04/10 05:51:00;;;;;;;14.02;9.82;;;;;;;7.14;91.97;99885.38;5013574;28;20045;-75
2021/04/10 05:53:27;;;;;;;14.35;9.68;;;;;;;7.26;92.06;99893.66;5013641;28;20058;-74
2021/04/10 05:55:54;;;;;;;14.50;10.18;;;;;;;7.26;92.04;99889.22;5014965;28;20144;-74
2021/04/10 05:58:21;;;;;;;16.88;11.20;;;;;;;7.27;92.24;99884.75;5029772;28;20100;-74
2021/04/10 06:00:47;;;;;;;13.65;10.15;;;;;;;7.35;92.39;99901.13;4997208;28;20339;-74
2021/04/10 06:03:16;;;;;;;14.30;10.32;;;;;;;7.34;91.69;99902.94;5030216;28;20053;-74
2021/04/10 06:05:44;;;;;;;12.68;9.82;;;;;;;7.40;91.33;99900.91;5014528;28;20061;-75
2021/04/10 06:08:10;;;;;;;15.38;9.98;;;;;;;7.47;90.71;99905.81;5014844;28;20057;-73
2021/04/10 06:10:36;;;;;;;14.25;9.85;;;;;;;7.45;90.19;99907.69;5015781;28;20058;-73
2021/04/10 06:13:03;;;;;;;11.13;9.43;;;;;;;7.46;90.58;99900.56;5018861;28;20442;-73
2021/04/10 06:15:29;;;;;;;11.85;10.20;;;;;;;7.48;91.21;99902.19;5018549;28;20149;-73
2021/04/10 06:17:55;;;;;;;15.57;10.63;;;;;;;7.46;90.84;99904.09;5018307;28;20107;-74
2021/04/10 06:20:22;;;;;;;13.80;10.50;;;;;;;7.50;91.04;99909.22;5018159;28;20053;-74
2021/04/10 06:22:48;;;;;;;15.75;10.98;;;;;;;7.55;91.42;99905.41;5017047;28;20077;-74
2021/04/10 06:25:14;;;;;;;12.63;10.30;;;;;;;7.52;91.19;99910.03;5017949;28;20341;-74
2021/04/10 06:27:41;;;;;;;11.13;9.90;;;;;;;7.50;91.31;99910.09;5018107;28;20111;-73
2021/04/10 06:30:08;;;;;;;12.70;10.25;;;;;;;7.54;91.52;99884.25;5017920;28;20444;-74
2021/04/10 06:32:35;;;;;;;13.60;10.10;;;;;;;7.61;90.22;99898.91;5017984;28;20049;-74
2021/04/10 06:35:03;;;;;;;10.77;9.35;;;;;;;7.67;90.51;99903.91;5017012;28;20351;-74
2021/04/10 06:37:32;;;;;;;18.23;10.68;;;;;;;7.71;90.47;99905.47;5018094;28;20137;-74
2021/04/10 06:39:58;;;;;;;12.80;10.73;;;;;;;7.80;90.08;99912.06;5018217;28;20120;-73
2021/04/10 06:42:25;;;;;;;14.60;10.73;;;;;;;7.71;90.46;99888.66;5017830;28;20057;-73
2021/04/10 06:44:53;;;;;;;12.95;10.63;;;;;;;7.77;91.00;99908.72;5021129;28;20049;-74
2021/04/10 06:47:22;;;;;;;15.80;10.93;;;;;;;7.85;90.68;99918.00;5013583;28;20097;-74
2021/04/10 06:49:51;;;;;;;14.15;10.60;;;;;;;7.97;90.49;99920.94;5016017;28;20042;-74
2021/04/10 06:52:19;;;;;;;12.60;10.40;;;;;;;7.98;90.57;99901.38;5013394;28;20530;-73
2021/04/10 06:54:51;;;;;;;12.60;10.13;;;;;;;8.04;90.74;99918.78;5017252;28;20060;-74
2021/04/10 06:57:21;;;;;;;13.68;10.18;;;;;;;8.06;90.19;99899.16;5014437;28;20049;-73
2021/04/10 06:59:57;;;;;;;13.32;10.88;;;;;;;8.16;90.64;99912.81;5017206;28;20443;-73
2021/04/10 07:02:26;;;;;;;14.15;10.90;;;;;;;8.21;90.14;99912.56;5017502;28;20053;-75
2021/04/10 07:04:55;;;;;;;12.55;9.38;;;;;;;8.16;88.88;99904.84;5016435;28;20041;-73
2021/04/10 07:07:23;;;;;;;12.15;10.35;;;;;;;8.17;89.16;99911.88;5012064;28;20050;-74
2021/04/10 07:09:52;;;;;;;12.00;9.73;;;;;;;8.29;88.68;99918.31;5010745;28;20050;-74
2021/04/10 07:12:19;;;;;;;13.27;9.73;;;;;;;8.43;88.58;99922.84;5009391;28;20095;-75
2021/04/10 07:14:45;;;;;;;17.98;11.05;;;;;;;8.38;88.70;99917.81;5011308;28;20050;-75
2021/04/10 07:17:13;;;;;;;14.27;10.00;;;;;;;8.39;88.55;99910.69;5010623;28;20050;-73
2021/04/10 07:19:40;;;;;;;11.25;9.93;;;;;;;8.50;88.63;99926.03;4995586;28;20057;-77
2021/04/10 07:22:08;;;;;;;13.63;9.90;;;;;;;8.50;88.51;99929.53;5008426;28;20400;-75
2021/04/10 07:24:54;;;;;;;17.38;10.45;;;;;;;8.54;89.22;99915.19;5007090;28;20057;-73
2021/04/10 07:27:23;;;;;;;16.35;11.02;;;;;;;8.69;87.85;99923.22;5016918;28;20050;-76
2021/04/10 07:29:58;;;;;;;13.80;10.88;;;;;;;8.74;87.90;99923.81;5016717;28;20098;-75
2021/04/10 07:32:38;;;;;;;13.50;10.63;;;;;;;8.76;87.09;99929.91;5016872;28;20376;-73
2021/04/10 07:35:13;;;;;;;14.98;10.30;;;;;;;8.77;87.29;99933.44;5015575;28;20116;-73
2021/04/10 07:37:42;;;;;;;14.00;9.93;;;;;;;8.87;86.66;99926.63;5016556;28;20054;-74
2021/04/10 07:40:23;;;;;;;11.55;9.30;;;;;;;8.89;87.38;99926.53;5020563;28;20343;-73
2021/04/10 07:42:49;;;;;;;14.93;10.30;;;;;;;8.92;87.30;99931.69;5016061;28;20065;-74
2021/04/10 07:45:24;;;;;;;11.40;9.32;;;;;;;8.85;87.17;99927.66;5012454;28;20465;-75
2021/04/10 07:48:01;;;;;;;14.75;9.82;;;;;;;8.87;87.52;99928.44;5015719;28;20052;-75
2021/04/10 07:50:28;;;;;;;12.90;9.93;;;;;;;8.95;87.99;99928.84;5016336;28;20084;-78
2021/04/10 07:52:55;;;;;;;16.35;9.95;;;;;;;8.96;87.68;99930.56;5015806;28;20537;-76
2021/04/10 07:55:37;;;;;;;13.75;9.73;;;;;;;8.96;86.94;99935.88;5011590;28;20352;-77
2021/04/10 07:58:20;;;;;;;14.18;9.63;;;;;;;8.91;87.67;99924.66;5012469;28;20046;-77
2021/04/10 08:00:47;;;;;;;12.43;9.75;;;;;;;8.93;87.96;99934.25;5012347;28;20049;-76
2021/04/10 08:03:27;;;;;;;13.05;9.90;;;;;;;8.85;87.71;99927.66;5016170;28;20100;-76
2021/04/10 08:05:53;;;;;;;17.13;11.40;;;;;;;8.89;89.19;99930.03;5016155;28;20444;-75
2021/04/10 08:08:25;;;;;;;16.55;10.93;;;;;;;8.88;89.20;99938.97;5015435;28;20045;-77
2021/04/10 08:11:02;;;;;;;16.48;10.63;;;;;;;8.88;88.88;99932.81;5015354;28;20502;-76
2021/04/10 08:13:30;;;;;;;14.10;10.88;;;;;;;8.87;89.44;99931.13;5015477;28;20104;-73
2021/04/10 08:16:18;;;;;;;13.98;10.30;;;;;;;8.91;89.38;99929.97;5014988;28;20483;-77
2021/04/10 08:18:47;;;;;;;15.77;10.93;;;;;;;8.98;89.46;99934.00;5007549;28;20065;-77
2021/04/10 08:21:14;;;;;;;14.98;10.50;;;;;;;8.96;89.96;99938.56;5015298;28;20120;-72
2021/04/10 08:23:45;;;;;;;18.05;11.93;;;;;;;8.96;89.49;99941.22;5015590;28;20080;-76
2021/04/10 08:26:12;;;;;;;13.77;10.82;;;;;;;9.10;89.90;99937.75;5015332;28;20057;-77
2021/04/10 08:28:38;;;;;;;16.98;11.68;;;;;;;9.05;89.85;99934.50;5014142;28;20061;-77
2021/04/10 08:31:05;;;;;;;17.13;11.63;;;;;;;9.02;89.30;99927.56;5018127;28;20053;-76
2021/04/10 08:33:33;;;;;;;17.08;12.27;;;;;;;9.14;89.03;99933.13;5014427;28;20050;-75
2021/04/10 08:36:04;;;;;;;15.73;11.48;;;;;;;9.19;88.98;99939.00;5015140;28;20142;-75
2021/04/10 08:38:32;;;;;;;19.38;11.32;;;;;;;9.16;87.46;99939.19;5015205;28;20046;-76
2021/04/10 08:41:03;;;;;;;19.77;12.43;;;;;;;9.09;89.15;99936.91;5015220;28;20057;-75
2021/04/10 08:43:31;;;;;;;16.70;13.65;;;;;;;9.08;89.96;99947.63;5015016;28;20394;-74
2021/04/10 08:45:59;;;;;;;16.15;13.05;;;;;;;9.08;88.87;99936.97;5016649;28;20056;-76
2021/04/10 08:48:28;;;;;;;20.63;14.02;;;;;;;8.99;89.00;99941.03;5015983;28;20108;-77
2021/04/10 08:50:58;;;;;;;18.38;13.27;;;;;;;8.89;89.45;99937.19;5017489;28;20104;-82
2021/04/10 08:53:31;;;;;;;18.17;14.23;;;;;;;8.95;90.58;99934.19;5021508;28;20129;-73
2021/04/10 08:55:58;;;;;;;21.00;15.32;;;;;;;8.94;90.52;99943.97;5015258;28;20050;-74
2021/04/10 08:58:29;;;;;;;20.05;14.90;;;;;;;8.90;91.01;99937.13;5014802;28;20054;-72
2021/04/10 09:00:57;;;;;;;;;;;;;;;8.82;91.04;99944.66;5015404;28;20065;-74
2021/04/10 09:03:44;;;;;;;25.33;15.20;;;;;;;8.73;91.07;99943.41;5024157;28;19925;-73
2021/04/10 09:06:50;;;;;;;24.25;15.35;;;;;;;8.75;92.06;99946.81;5025325;28;20056;-74
2021/04/10 09:09:20;;;;;;;24.33;16.88;;;;;;;8.77;92.49;99949.41;5032163;28;20164;-81
2021/04/10 09:11:49;;;;;;;25.58;16.42;;;;;;;8.73;90.97;99934.56;5015294;28;20121;-78
2021/04/10 09:14:45;;;;;;;25.38;17.60;;;;;;;8.76;91.80;99945.88;5011889;28;20453;-81
2021/04/10 09:17:12;;;;;;;27.98;17.48;;;;;;;8.85;92.58;99943.63;5015406;28;20420;-81
2021/04/10 09:19:39;;;;;;;28.45;18.40;;;;;;;8.83;92.00;99944.56;5012264;28;20129;-75
2021/04/10 09:22:06;;;;;;;25.77;17.65;;;;;;;8.83;91.97;99935.75;5029658;28;20092;-76
2021/04/10 09:24:44;;;;;;;26.25;18.67;;;;;;;8.95;92.42;99937.69;5014657;28;20397;-73
2021/04/10 09:27:24;;;;;;;25.40;18.00;;;;;;;9.00;89.63;99947.22;5014590;28;20431;-73
2021/04/10 09:29:56;;;;;;;24.63;17.90;;;;;;;9.10;90.36;99943.09;5014165;28;20057;-75
2021/04/10 09:32:36;;;;;;;25.52;18.20;;;;;;;9.12;90.90;99941.19;5017987;28;20041;-81
2021/04/10 09:35:04;;;;;;;25.85;17.27;;;;;;;9.13;91.14;99945.56;5015822;28;20066;-83
2021/04/10 09:37:30;;;;;;;25.70;18.13;;;;;;;9.20;89.95;99946.03;5014528;28;20325;-76
2021/04/10 09:39:59;;;;;;;23.10;18.00;;;;;;;9.09;91.36;99946.66;5014780;28;20058;-78
2021/04/10 09:45:06;;;;;;;22.67;18.48;;;;;;;9.06;91.54;99944.19;5014512;28;20132;-76
2021/04/10 09:47:54;;;;;;;27.77;18.83;;;;;;;9.05;92.87;99940.66;5018334;28;20434;-76
2021/04/10 09:50:32;;;;;;;26.73;18.58;;;;;;;9.13;90.67;99936.69;5017934;28;20469;-74
2021/04/10 09:52:58;;;;;;;29.92;20.15;;;;;;;9.16;91.80;99942.69;5017411;28;20056;-77
2021/04/10 09:55:38;;;;;;;26.90;20.58;;;;;;;9.19;90.99;99936.34;5018644;28;20061;-75
2021/04/10 09:58:08;;;;;;;26.33;20.38;;;;;;;9.09;91.43;99920.03;5016127;28;20364;-75
2021/04/10 10:00:35;;;;;;;27.27;19.58;;;;;;;9.21;90.20;99932.66;5018146;28;20049;-75
2021/04/10 10:03:05;;;;;;;27.35;20.67;;;;;;;9.22;91.33;99929.03;5018221;28;20050;-75
2021/04/10 10:05:33;;;;;;;26.02;20.67;;;;;;;9.30;91.07;99935.69;5017091;28;20054;-75
2021/04/10 10:08:05;;;;;;;25.60;20.05;;;;;;;9.34;91.27;99924.81;5018252;28;20108;-75
2021/04/10 10:10:32;;;;;;;27.92;20.30;;;;;;;9.41;91.61;99932.44;5012692;28;20050;-77
2021/04/10 10:13:09;;;;;;;28.75;20.33;;;;;;;9.40;90.93;99925.34;5018014;28;20065;-76
2021/04/10 10:15:36;;;;;;;29.33;21.23;;;;;;;9.40;91.42;99922.69;5013474;28;20373;-74
2021/04/10 10:18:31;;;;;;;27.02;19.75;;;;;;;9.37;92.28;99921.94;5018106;28;20052;-72
2021/04/10 10:21:18;;;;;;;27.15;22.33;;;;;;;9.41;93.54;99916.44;5017280;28;20104;-75
2021/04/10 10:23:59;;;;;;;27.85;20.92;;;;;;;9.41;92.48;99914.63;5017553;28;20111;-74
2021/04/10 10:26:28;;;;;;;23.20;18.23;;;;;;;9.45;91.92;99908.16;5013534;28;20046;-75
2021/04/10 10:29:00;;;;;;;22.58;19.45;;;;;;;9.44;92.57;99908.25;5015623;28;20053;-75
2021/04/10 10:31:30;;;;;;;26.92;20.20;;;;;;;9.47;93.02;99916.03;5017626;28;20387;-73
2021/04/10 10:34:04;;;;;;;25.25;19.83;;;;;;;9.46;93.27;99899.22;5017507;28;20054;-71
2021/04/10 10:36:35;;;;;;;24.48;19.67;;;;;;;9.35;92.79;99894.56;5016213;28;20050;-77
2021/04/10 10:39:05;;;;;;;21.65;17.60;;;;;;;9.38;91.25;99893.50;5017715;28;20054;-72
2021/04/10 10:41:44;;;;;;;23.80;18.85;;;;;;;9.38;92.40;99898.84;5017270;28;20440;-73
2021/04/10 10:44:11;;;;;;;23.80;17.60;;;;;;;9.41;90.71;99884.47;5016535;28;20066;-72
2021/04/10 10:46:38;;;;;;;20.77;16.30;;;;;;;9.41;90.29;99881.81;5017453;28;20050;-72
2021/04/10 10:49:09;;;;;;;24.85;17.27;;;;;;;9.45;90.54;99883.31;5000002;28;20062;-71
2021/04/10 10:51:40;;;;;;;18.95;14.55;;;;;;;9.62;87.85;99877.84;5032907;28;20050;-70
2021/04/10 10:54:07;;;;;;;18.20;14.30;;;;;;;9.56;88.12;99880.00;5017517;28;20053;-70
2021/04/10 10:56:34;;;;;;;20.05;15.43;;;;;;;9.43;88.61;99870.09;5014905;28;20057;-72
2021/04/10 10:59:08;;;;;;;24.10;16.67;;;;;;;9.48;91.79;99877.81;4999951;28;20061;-70
2021/04/10 11:01:35;;;;;;;20.02;15.80;;;;;;;9.43;91.46;99869.25;5017166;28;20050;-71
2021/04/10 11:04:08;;;;;;;25.17;16.70;;;;;;;9.44;92.18;99871.84;5017229;28;20046;-73
2021/04/10 11:06:37;;;;;;;20.25;16.17;;;;;;;9.48;93.19;99861.84;5016807;28;20474;-73
2021/04/10 11:09:07;;;;;;;23.92;16.20;;;;;;;9.45;91.73;99864.69;5017717;28;20046;-75
2021/04/10 11:11:45;;;;;;;18.23;14.25;;;;;;;9.44;91.02;99860.31;4998730;28;20053;-72
2021/04/10 11:14:19;;;;;;;21.60;15.20;;;;;;;9.43;91.49;99858.59;5030647;28;20124;-70
2021/04/10 11:16:48;;;;;;;19.50;15.15;;;;;;;9.42;91.74;99856.88;5004923;28;20140;-72
2021/04/10 11:19:45;;;;;;;19.90;14.85;;;;;;;9.52;90.92;99852.69;5019048;28;20055;-72
2021/04/10 11:22:15;;;;;;;20.33;15.65;;;;;;;9.53;91.71;99846.41;5013186;28;20097;-71
2021/04/10 11:24:43;;;;;;;19.70;15.27;;;;;;;9.63;90.96;99842.25;5000901;28;20340;-73
2021/04/10 11:27:23;;;;;;;20.67;15.13;;;;;;;9.58;90.00;99846.16;5001221;28;20137;-73
2021/04/10 11:29:58;;;;;;;21.10;15.15;;;;;;;9.59;91.07;99837.19;4996645;28;20347;-71
2021/04/10 11:32:24;;;;;;;23.38;15.95;;;;;;;9.61;91.55;99835.28;4996754;28;20105;-73
2021/04/10 11:34:54;;;;;;;20.65;15.90;;;;;;;9.56;91.55;99838.25;4996576;28;20101;-73
2021/04/10 11:37:23;;;;;;;20.23;15.50;;;;;;;9.55;91.97;99831.22;4996785;28;20490;-71
2021/04/10 11:39:56;;;;;;;18.17;12.82;;;;;;;9.46;90.99;99821.97;4997075;28;20359;-72
2021/04/10 11:42:28;;;;;;;20.52;15.73;;;;;;;9.40;91.74;99817.03;4996711;28;20047;-72
2021/04/10 11:45:00;;;;;;;23.70;16.17;;;;;;;9.38;91.86;99814.44;4996766;28;20050;-73